Date,TemperatureHighF,TemperatureAvgF,TemperatureLowF,DewpointHighF,DewpointAvgF,DewpointLowF,HumidityHigh,HumidityAvg,HumidityLow,PressureMaxIn,PressureMinIn,WindSpeedMaxMPH,WindSpeedAvgMPH,GustSpeedMaxMPH,PrecipitationSumIn
2013-1-1,57.0,47.0,39.0,26.0,22.7,19.2,57,39,24,30.27,21.23,17,7,18,0.00
2013-1-2,59.4,50.0,42.1,22.8,18.0,14.0,40,29,17,30.19,30.05,22,9,23,0.00
2013-1-3,61.7,51.7,43.5,21.4,16.7,11.6,38,26,15,30.20,30.05,22,9,23,0.00
2013-1-4,61.9,51.1,41.2,25.1,16.7,10.3,37,26,18,30.31,30.19,15,6,17,0.00
2013-1-5,62.8,50.3,39.6,25.1,18.2,14.9,43,29,16,30.34,30.19,13,6,15,0.00
2013-1-6,64.6,49.8,37.8,36.1,27.1,18.4,68,43,21,30.19,29.97,22,6,24,0.00
2013-1-7,63.5,52.9,44.8,41.3,31.6,21.7,80,48,23,30.02,29.92,26,7,26,0.00
2013-1-8,71.8,57.9,40.6,31.4,24.7,16.4,52,29,16,30.09,29.93,22,7,32,0.00
2013-1-9,72.0,60.2,47.7,31.5,28.5,23.0,52,31,16,30.15,29.96,17,7,19,0.00
2013-1-10,63.3,55.1,48.2,50.2,34.8,26.0,66,47,33,30.01,29.83,34,12,37,0.00
2013-1-11,55.4,46.9,37.2,31.7,22.4,12.2,65,40,18,30.16,30.01,15,5,15,0.00
2013-1-12,55.2,45.0,34.3,28.7,21.5,12.1,74,42,19,30.16,30.02,16,5,18,0.00
2013-1-13,53.6,44.1,34.5,19.9,10.5,4.4,47,26,15,30.19,30.07,18,7,18,0.00
2013-1-14,48.0,41.9,34.0,11.7,5.9,-0.3,35,22,14,30.35,30.12,25,12,30,0.00
2013-1-15,51.8,47.1,40.5,18.2,10.4,1.6,36,23,14,30.50,30.35,24,10,26,0.00
2013-1-16,60.6,48.6,38.5,25.2,20.1,13.5,44,33,21,30.42,30.23,20,8,15,0.00
2013-1-17,68.0,56.1,46.2,27.0,22.1,18.3,40,28,17,30.28,30.15,23,8,24,0.00
2013-1-18,70.7,59.7,50.9,26.7,20.6,16.4,30,22,15,30.21,20.25,18,8,21,0.00
2013-1-19,71.4,59.4,51.4,27.0,20.9,17.5,30,23,15,30.24,20.25,19,8,19,0.00
2013-1-20,71.6,61.2,52.9,23.5,18.0,13.8,27,19,12,30.16,30.03,19,9,20,0.00
2013-1-21,73.8,62.0,53.2,20.9,14.9,10.7,24,16,10,30.13,21.08,20,9,23,0.00
2013-1-22,76.3,63.0,49.8,25.5,16.2,8.8,25,17,10,30.14,30.04,13,6,16,0.00
2013-1-23,77.4,64.4,49.6,39.6,26.8,18.1,46,25,15,30.12,30.02,16,5,17,0.00
2013-1-24,72.0,64.4,57.6,48.5,42.6,31.0,70,46,30,30.19,30.06,13,6,13,0.00
2013-1-25,69.8,61.4,57.0,56.0,51.4,45.7,94,71,46,30.15,29.97,19,7,20,0.67
2013-1-26,65.1,60.0,57.4,58.5,56.4,55.4,94,88,72,29.98,29.88,11,6,12,0.00
2013-1-27,68.9,60.4,52.7,58.1,53.6,39.2,94,79,57,29.99,29.88,15,6,16,0.00
2013-1-28,59.9,52.6,44.8,40.9,36.8,30.3,74,56,33,30.11,29.96,25,9,25,0.00
2013-1-29,61.5,50.1,39.6,40.7,36.0,31.6,85,61,35,30.22,30.09,13,4,13,0.00
2013-1-30,66.6,53.9,41.7,43.9,38.0,30.3,87,59,26,30.37,30.22,14,4,14,0.00
2013-1-31,69.6,56.5,43.0,42.2,38.3,33.5,84,54,28,30.25,30.11,19,6,18,0.00